sensor_id;sensor_type;location;lat;lon;timestamp;P1;durP1;ratioP1;P2;durP2;ratioP2
64520;SDS011;50896;46.714;17.322;2023-05-07T00:01:38;9.68;;;6.95;;
64520;SDS011;50896;46.714;17.322;2023-05-07T00:04:04;8.10;;;6.63;;
64520;SDS011;50896;46.714;17.322;2023-05-07T00:06:31;7.22;;;6.50;;
64520;SDS011;50896;46.714;17.322;2023-05-07T00:08:58;7.68;;;6.88;;
64520;SDS011;50896;46.714;17.322;2023-05-07T00:11:26;10.85;;;7.50;;
64520;SDS011;50896;46.714;17.322;2023-05-07T00:13:54;10.95;;;7.75;;
64520;SDS011;50896;46.714;17.322;2023-05-07T00:16:21;8.50;;;7.30;;
64520;SDS011;50896;46.714;17.322;2023-05-07T00:18:48;7.80;;;6.97;;
64520;SDS011;50896;46.714;17.322;2023-05-07T00:21:14;8.15;;;7.35;;
64520;SDS011;50896;46.714;17.322;2023-05-07T00:23:41;9.57;;;6.88;;
64520;SDS011;50896;46.714;17.322;2023-05-07T00:26:08;8.63;;;7.18;;
64520;SDS011;50896;46.714;17.322;2023-05-07T00:28:36;9.13;;;7.72;;
64520;SDS011;50896;46.714;17.322;2023-05-07T00:31:02;8.40;;;7.35;;
64520;SDS011;50896;46.714;17.322;2023-05-07T00:33:29;8.43;;;7.53;;
64520;SDS011;50896;46.714;17.322;2023-05-07T00:35:56;10.02;;;7.53;;
64520;SDS011;50896;46.714;17.322;2023-05-07T00:38:23;9.23;;;7.15;;
64520;SDS011;50896;46.714;17.322;2023-05-07T00:40:50;8.18;;;7.20;;
64520;SDS011;50896;46.714;17.322;2023-05-07T00:43:17;12.10;;;7.53;;
64520;SDS011;50896;46.714;17.322;2023-05-07T00:45:44;9.48;;;7.25;;
64520;SDS011;50896;46.714;17.322;2023-05-07T00:48:12;7.85;;;7.07;;
64520;SDS011;50896;46.714;17.322;2023-05-07T00:50:40;8.48;;;7.32;;
64520;SDS011;50896;46.714;17.322;2023-05-07T00:53:08;7.90;;;6.53;;
64520;SDS011;50896;46.714;17.322;2023-05-07T00:55:35;9.45;;;7.53;;
64520;SDS011;50896;46.714;17.322;2023-05-07T00:58:03;10.02;;;7.53;;
64520;SDS011;50896;46.714;17.322;2023-05-07T01:00:30;8.80;;;6.68;;
64520;SDS011;50896;46.714;17.322;2023-05-07T01:02:57;7.05;;;6.13;;
64520;SDS011;50896;46.714;17.322;2023-05-07T01:05:25;8.68;;;7.13;;
64520;SDS011;50896;46.714;17.322;2023-05-07T01:07:54;11.13;;;7.50;;
64520;SDS011;50896;46.714;17.322;2023-05-07T01:10:21;8.05;;;6.57;;
64520;SDS011;50896;46.714;17.322;2023-05-07T01:12:49;7.82;;;7.03;;
64520;SDS011;50896;46.714;17.322;2023-05-07T01:15:17;8.45;;;7.07;;
64520;SDS011;50896;46.714;17.322;2023-05-07T01:17:44;8.38;;;7.47;;
64520;SDS011;50896;46.714;17.322;2023-05-07T01:20:17;7.63;;;6.82;;
64520;SDS011;50896;46.714;17.322;2023-05-07T01:22:48;9.88;;;8.10;;
64520;SDS011;50896;46.714;17.322;2023-05-07T01:25:15;8.88;;;7.82;;
64520;SDS011;50896;46.714;17.322;2023-05-07T01:27:47;10.70;;;7.97;;
64520;SDS011;50896;46.714;17.322;2023-05-07T01:30:14;9.50;;;7.82;;
64520;SDS011;50896;46.714;17.322;2023-05-07T01:35:45;11.70;;;7.57;;
64520;SDS011;50896;46.714;17.322;2023-05-07T01:38:13;11.35;;;6.95;;
64520;SDS011;50896;46.714;17.322;2023-05-07T01:40:41;9.20;;;7.13;;
64520;SDS011;50896;46.714;17.322;2023-05-07T01:43:09;8.25;;;6.93;;
64520;SDS011;50896;46.714;17.322;2023-05-07T01:45:36;9.00;;;7.65;;
64520;SDS011;50896;46.714;17.322;2023-05-07T01:48:05;8.90;;;8.00;;
64520;SDS011;50896;46.714;17.322;2023-05-07T01:50:33;9.60;;;7.97;;
64520;SDS011;50896;46.714;17.322;2023-05-07T01:53:01;9.55;;;8.40;;
64520;SDS011;50896;46.714;17.322;2023-05-07T01:55:28;9.23;;;7.30;;
64520;SDS011;50896;46.714;17.322;2023-05-07T01:57:55;10.25;;;9.00;;
64520;SDS011;50896;46.714;17.322;2023-05-07T02:00:22;13.15;;;8.60;;
64520;SDS011;50896;46.714;17.322;2023-05-07T02:02:49;11.68;;;7.85;;
64520;SDS011;50896;46.714;17.322;2023-05-07T02:05:28;11.57;;;9.57;;
64520;SDS011;50896;46.714;17.322;2023-05-07T02:08:03;11.00;;;9.77;;
64520;SDS011;50896;46.714;17.322;2023-05-07T02:10:30;12.13;;;9.50;;
64520;SDS011;50896;46.714;17.322;2023-05-07T02:12:58;10.65;;;9.55;;
64520;SDS011;50896;46.714;17.322;2023-05-07T02:15:26;10.80;;;9.43;;
64520;SDS011;50896;46.714;17.322;2023-05-07T02:18:03;12.43;;;9.80;;
64520;SDS011;50896;46.714;17.322;2023-05-07T02:20:30;11.15;;;9.88;;
64520;SDS011;50896;46.714;17.322;2023-05-07T02:22:56;11.73;;;10.48;;
64520;SDS011;50896;46.714;17.322;2023-05-07T02:25:25;11.30;;;9.60;;
64520;SDS011;50896;46.714;17.322;2023-05-07T02:27:52;10.57;;;9.30;;
64520;SDS011;50896;46.714;17.322;2023-05-07T02:30:23;10.13;;;9.13;;
64520;SDS011;50896;46.714;17.322;2023-05-07T02:32:52;10.40;;;9.10;;
64520;SDS011;50896;46.714;17.322;2023-05-07T02:35:18;10.50;;;9.40;;
64520;SDS011;50896;46.714;17.322;2023-05-07T02:37:45;10.48;;;9.48;;
64520;SDS011;50896;46.714;17.322;2023-05-07T02:40:13;11.43;;;9.20;;
64520;SDS011;50896;46.714;17.322;2023-05-07T02:42:40;12.88;;;9.32;;
64520;SDS011;50896;46.714;17.322;2023-05-07T02:45:07;9.77;;;8.18;;
64520;SDS011;50896;46.714;17.322;2023-05-07T02:47:34;9.68;;;8.57;;
64520;SDS011;50896;46.714;17.322;2023-05-07T02:50:03;10.30;;;8.77;;
64520;SDS011;50896;46.714;17.322;2023-05-07T02:52:30;11.93;;;8.52;;
64520;SDS011;50896;46.714;17.322;2023-05-07T02:54:57;7.85;;;6.95;;
64520;SDS011;50896;46.714;17.322;2023-05-07T02:57:24;9.77;;;7.50;;
64520;SDS011;50896;46.714;17.322;2023-05-07T02:59:51;9.68;;;8.40;;
64520;SDS011;50896;46.714;17.322;2023-05-07T03:02:19;11.38;;;8.27;;
64520;SDS011;50896;46.714;17.322;2023-05-07T03:04:46;11.90;;;9.07;;
64520;SDS011;50896;46.714;17.322;2023-05-07T03:07:13;10.65;;;8.10;;
64520;SDS011;50896;46.714;17.322;2023-05-07T03:09:40;9.98;;;8.27;;
64520;SDS011;50896;46.714;17.322;2023-05-07T03:12:07;10.00;;;7.55;;
64520;SDS011;50896;46.714;17.322;2023-05-07T03:14:34;10.95;;;7.88;;
64520;SDS011;50896;46.714;17.322;2023-05-07T03:17:01;9.43;;;7.53;;
64520;SDS011;50896;46.714;17.322;2023-05-07T03:19:28;8.93;;;8.02;;
64520;SDS011;50896;46.714;17.322;2023-05-07T03:21:57;8.85;;;7.95;;
64520;SDS011;50896;46.714;17.322;2023-05-07T03:24:24;10.35;;;9.15;;
64520;SDS011;50896;46.714;17.322;2023-05-07T03:26:51;10.40;;;8.45;;
64520;SDS011;50896;46.714;17.322;2023-05-07T03:29:18;8.32;;;7.47;;
64520;SDS011;50896;46.714;17.322;2023-05-07T03:31:45;9.80;;;7.65;;
64520;SDS011;50896;46.714;17.322;2023-05-07T03:34:12;9.35;;;8.35;;
64520;SDS011;50896;46.714;17.322;2023-05-07T03:36:39;8.55;;;7.68;;
64520;SDS011;50896;46.714;17.322;2023-05-07T03:39:08;8.85;;;7.95;;
64520;SDS011;50896;46.714;17.322;2023-05-07T03:41:38;8.82;;;7.85;;
64520;SDS011;50896;46.714;17.322;2023-05-07T03:44:05;12.00;;;8.52;;
64520;SDS011;50896;46.714;17.322;2023-05-07T03:46:33;8.90;;;8.02;;
64520;SDS011;50896;46.714;17.322;2023-05-07T03:49:01;13.25;;;8.48;;
64520;SDS011;50896;46.714;17.322;2023-05-07T03:51:28;9.57;;;8.52;;
64520;SDS011;50896;46.714;17.322;2023-05-07T03:53:56;9.48;;;8.57;;
64520;SDS011;50896;46.714;17.322;2023-05-07T03:56:28;11.38;;;9.25;;
64520;SDS011;50896;46.714;17.322;2023-05-07T03:58:56;10.60;;;9.20;;
64520;SDS011;50896;46.714;17.322;2023-05-07T04:01:23;10.73;;;8.75;;
64520;SDS011;50896;46.714;17.322;2023-05-07T04:03:50;9.73;;;8.70;;
64520;SDS011;50896;46.714;17.322;2023-05-07T04:06:17;11.30;;;9.27;;
64520;SDS011;50896;46.714;17.322;2023-05-07T04:08:46;11.50;;;10.30;;
64520;SDS011;50896;46.714;17.322;2023-05-07T04:11:13;11.30;;;9.93;;
64520;SDS011;50896;46.714;17.322;2023-05-07T04:13:40;11.60;;;10.02;;
64520;SDS011;50896;46.714;17.322;2023-05-07T04:16:08;10.20;;;9.13;;
64520;SDS011;50896;46.714;17.322;2023-05-07T04:18:37;14.02;;;10.73;;
64520;SDS011;50896;46.714;17.322;2023-05-07T04:21:04;10.48;;;9.43;;
64520;SDS011;50896;46.714;17.322;2023-05-07T04:23:33;11.93;;;10.00;;
64520;SDS011;50896;46.714;17.322;2023-05-07T04:26:03;12.13;;;9.68;;
64520;SDS011;50896;46.714;17.322;2023-05-07T04:28:37;11.45;;;9.43;;
64520;SDS011;50896;46.714;17.322;2023-05-07T04:31:06;41.78;;;25.52;;
64520;SDS011;50896;46.714;17.322;2023-05-07T04:33:35;18.90;;;13.82;;
64520;SDS011;50896;46.714;17.322;2023-05-07T04:36:03;12.88;;;10.48;;
64520;SDS011;50896;46.714;17.322;2023-05-07T04:38:35;11.32;;;10.10;;
64520;SDS011;50896;46.714;17.322;2023-05-07T04:41:03;11.15;;;9.95;;
64520;SDS011;50896;46.714;17.322;2023-05-07T04:43:35;11.15;;;9.98;;
64520;SDS011;50896;46.714;17.322;2023-05-07T04:46:02;12.07;;;10.82;;
64520;SDS011;50896;46.714;17.322;2023-05-07T04:48:29;11.75;;;10.10;;
64520;SDS011;50896;46.714;17.322;2023-05-07T04:50:57;11.70;;;10.23;;
64520;SDS011;50896;46.714;17.322;2023-05-07T04:53:24;12.35;;;10.55;;
64520;SDS011;50896;46.714;17.322;2023-05-07T04:55:56;12.25;;;10.75;;
64520;SDS011;50896;46.714;17.322;2023-05-07T04:58:27;11.43;;;10.23;;
64520;SDS011;50896;46.714;17.322;2023-05-07T05:00:58;11.90;;;10.57;;
64520;SDS011;50896;46.714;17.322;2023-05-07T05:03:25;13.80;;;11.55;;
64520;SDS011;50896;46.714;17.322;2023-05-07T05:05:52;13.00;;;11.13;;
64520;SDS011;50896;46.714;17.322;2023-05-07T05:08:21;14.02;;;10.65;;
64520;SDS011;50896;46.714;17.322;2023-05-07T05:10:48;12.07;;;10.75;;
64520;SDS011;50896;46.714;17.322;2023-05-07T05:13:16;12.88;;;10.43;;
64520;SDS011;50896;46.714;17.322;2023-05-07T05:15:44;13.20;;;10.57;;
64520;SDS011;50896;46.714;17.322;2023-05-07T05:18:12;13.07;;;10.23;;
64520;SDS011;50896;46.714;17.322;2023-05-07T05:20:39;12.63;;;10.82;;
64520;SDS011;50896;46.714;17.322;2023-05-07T05:23:07;12.40;;;9.40;;
64520;SDS011;50896;46.714;17.322;2023-05-07T05:25:35;13.40;;;11.10;;
64520;SDS011;50896;46.714;17.322;2023-05-07T05:28:03;13.82;;;10.98;;
64520;SDS011;50896;46.714;17.322;2023-05-07T05:30:32;16.95;;;11.50;;
64520;SDS011;50896;46.714;17.322;2023-05-07T05:32:59;12.68;;;10.27;;
64520;SDS011;50896;46.714;17.322;2023-05-07T05:35:27;13.35;;;11.15;;
64520;SDS011;50896;46.714;17.322;2023-05-07T05:37:55;12.13;;;10.93;;
64520;SDS011;50896;46.714;17.322;2023-05-07T05:40:22;12.80;;;11.50;;
64520;SDS011;50896;46.714;17.322;2023-05-07T05:42:49;12.80;;;11.38;;
64520;SDS011;50896;46.714;17.322;2023-05-07T05:45:16;15.30;;;12.32;;
64520;SDS011;50896;46.714;17.322;2023-05-07T05:47:44;12.57;;;11.27;;
64520;SDS011;50896;46.714;17.322;2023-05-07T05:50:11;12.20;;;10.43;;
64520;SDS011;50896;46.714;17.322;2023-05-07T05:52:38;15.65;;;13.07;;
64520;SDS011;50896;46.714;17.322;2023-05-07T05:55:07;13.23;;;11.63;;
64520;SDS011;50896;46.714;17.322;2023-05-07T05:57:36;17.33;;;13.60;;
64520;SDS011;50896;46.714;17.322;2023-05-07T06:00:03;17.15;;;14.05;;
64520;SDS011;50896;46.714;17.322;2023-05-07T06:02:32;20.75;;;16.83;;
64520;SDS011;50896;46.714;17.322;2023-05-07T06:04:59;20.63;;;15.77;;
64520;SDS011;50896;46.714;17.322;2023-05-07T06:07:26;16.77;;;13.48;;
64520;SDS011;50896;46.714;17.322;2023-05-07T06:09:53;17.90;;;15.40;;
64520;SDS011;50896;46.714;17.322;2023-05-07T06:12:22;18.40;;;15.35;;
64520;SDS011;50896;46.714;17.322;2023-05-07T06:14:48;17.70;;;13.48;;
64520;SDS011;50896;46.714;17.322;2023-05-07T06:17:16;14.88;;;13.27;;
64520;SDS011;50896;46.714;17.322;2023-05-07T06:19:46;14.70;;;13.20;;
64520;SDS011;50896;46.714;17.322;2023-05-07T06:24:42;15.63;;;12.73;;
64520;SDS011;50896;46.714;17.322;2023-05-07T06:27:10;13.68;;;11.73;;
64520;SDS011;50896;46.714;17.322;2023-05-07T06:29:37;14.82;;;11.98;;
64520;SDS011;50896;46.714;17.322;2023-05-07T06:32:11;17.23;;;12.63;;
64520;SDS011;50896;46.714;17.322;2023-05-07T06:34:41;11.75;;;10.55;;
64520;SDS011;50896;46.714;17.322;2023-05-07T06:37:08;14.20;;;12.13;;
64520;SDS011;50896;46.714;17.322;2023-05-07T06:39:52;18.20;;;13.30;;
64520;SDS011;50896;46.714;17.322;2023-05-07T06:42:18;14.30;;;12.45;;
64520;SDS011;50896;46.714;17.322;2023-05-07T06:44:47;13.75;;;12.13;;
64520;SDS011;50896;46.714;17.322;2023-05-07T06:47:16;15.18;;;11.93;;
64520;SDS011;50896;46.714;17.322;2023-05-07T06:49:45;13.90;;;11.55;;
64520;SDS011;50896;46.714;17.322;2023-05-07T06:52:15;15.57;;;12.70;;
64520;SDS011;50896;46.714;17.322;2023-05-07T06:54:43;13.80;;;11.80;;
64520;SDS011;50896;46.714;17.322;2023-05-07T06:57:13;10.82;;;9.73;;
64520;SDS011;50896;46.714;17.322;2023-05-07T06:59:40;12.82;;;10.90;;
64520;SDS011;50896;46.714;17.322;2023-05-07T07:02:07;15.45;;;11.05;;
64520;SDS011;50896;46.714;17.322;2023-05-07T07:04:35;12.00;;;10.27;;
64520;SDS011;50896;46.714;17.322;2023-05-07T07:07:05;13.70;;;11.80;;
64520;SDS011;50896;46.714;17.322;2023-05-07T07:09:32;12.27;;;10.98;;
64520;SDS011;50896;46.714;17.322;2023-05-07T07:12:00;13.38;;;10.30;;
64520;SDS011;50896;46.714;17.322;2023-05-07T07:14:28;13.95;;;9.90;;
64520;SDS011;50896;46.714;17.322;2023-05-07T07:16:54;11.98;;;10.38;;
64520;SDS011;50896;46.714;17.322;2023-05-07T07:19:23;11.65;;;9.55;;
64520;SDS011;50896;46.714;17.322;2023-05-07T07:21:52;12.68;;;10.80;;
64520;SDS011;50896;46.714;17.322;2023-05-07T07:24:19;11.43;;;9.48;;
64520;SDS011;50896;46.714;17.322;2023-05-07T07:26:51;11.32;;;10.13;;
64520;SDS011;50896;46.714;17.322;2023-05-07T07:29:20;12.93;;;10.23;;
64520;SDS011;50896;46.714;17.322;2023-05-07T07:31:48;11.52;;;10.25;;
64520;SDS011;50896;46.714;17.322;2023-05-07T07:34:17;11.45;;;9.70;;
64520;SDS011;50896;46.714;17.322;2023-05-07T07:36:44;12.45;;;10.05;;
64520;SDS011;50896;46.714;17.322;2023-05-07T07:39:16;12.07;;;10.88;;
64520;SDS011;50896;46.714;17.322;2023-05-07T07:41:44;13.13;;;11.18;;
64520;SDS011;50896;46.714;17.322;2023-05-07T07:44:12;18.20;;;12.43;;
64520;SDS011;50896;46.714;17.322;2023-05-07T07:46:45;13.15;;;11.55;;
64520;SDS011;50896;46.714;17.322;2023-05-07T07:49:12;13.82;;;11.43;;
64520;SDS011;50896;46.714;17.322;2023-05-07T07:51:40;13.70;;;11.95;;
64520;SDS011;50896;46.714;17.322;2023-05-07T07:54:08;11.18;;;10.07;;
64520;SDS011;50896;46.714;17.322;2023-05-07T07:56:35;11.75;;;10.48;;
64520;SDS011;50896;46.714;17.322;2023-05-07T07:59:03;11.65;;;10.45;;
64520;SDS011;50896;46.714;17.322;2023-05-07T08:01:32;12.73;;;10.15;;
64520;SDS011;50896;46.714;17.322;2023-05-07T08:03:59;11.48;;;10.23;;
64520;SDS011;50896;46.714;17.322;2023-05-07T08:06:29;10.43;;;9.20;;
64520;SDS011;50896;46.714;17.322;2023-05-07T08:08:56;14.38;;;9.68;;
64520;SDS011;50896;46.714;17.322;2023-05-07T08:11:23;9.85;;;8.82;;
64520;SDS011;50896;46.714;17.322;2023-05-07T08:13:51;13.07;;;9.50;;
64520;SDS011;50896;46.714;17.322;2023-05-07T08:16:17;9.60;;;8.63;;
64520;SDS011;50896;46.714;17.322;2023-05-07T08:18:46;10.48;;;7.82;;
64520;SDS011;50896;46.714;17.322;2023-05-07T08:21:13;10.45;;;7.47;;
64520;SDS011;50896;46.714;17.322;2023-05-07T08:23:40;6.63;;;5.95;;
64520;SDS011;50896;46.714;17.322;2023-05-07T08:26:07;7.07;;;6.38;;
64520;SDS011;50896;46.714;17.322;2023-05-07T08:28:35;6.53;;;5.82;;
64520;SDS011;50896;46.714;17.322;2023-05-07T08:31:02;6.50;;;5.80;;
64520;SDS011;50896;46.714;17.322;2023-05-07T08:33:33;6.88;;;5.10;;
64520;SDS011;50896;46.714;17.322;2023-05-07T08:36:00;4.78;;;4.38;;
64520;SDS011;50896;46.714;17.322;2023-05-07T08:38:27;5.18;;;4.63;;
64520;SDS011;50896;46.714;17.322;2023-05-07T08:40:54;5.85;;;4.68;;
64520;SDS011;50896;46.714;17.322;2023-05-07T08:43:21;5.78;;;4.28;;
64520;SDS011;50896;46.714;17.322;2023-05-07T08:45:53;8.30;;;4.88;;
64520;SDS011;50896;46.714;17.322;2023-05-07T08:48:26;6.38;;;4.60;;
64520;SDS011;50896;46.714;17.322;2023-05-07T08:51:04;6.60;;;4.57;;
64520;SDS011;50896;46.714;17.322;2023-05-07T08:53:32;4.55;;;3.67;;
64520;SDS011;50896;46.714;17.322;2023-05-07T08:56:00;7.05;;;3.25;;
64520;SDS011;50896;46.714;17.322;2023-05-07T08:58:29;4.00;;;3.08;;
64520;SDS011;50896;46.714;17.322;2023-05-07T09:00:56;6.18;;;3.47;;
64520;SDS011;50896;46.714;17.322;2023-05-07T09:03:23;5.05;;;3.10;;
64520;SDS011;50896;46.714;17.322;2023-05-07T09:05:53;3.47;;;3.00;;
64520;SDS011;50896;46.714;17.322;2023-05-07T09:08:24;3.92;;;2.30;;
64520;SDS011;50896;46.714;17.322;2023-05-07T09:10:57;6.60;;;2.55;;
64520;SDS011;50896;46.714;17.322;2023-05-07T09:13:24;2.42;;;2.15;;
64520;SDS011;50896;46.714;17.322;2023-05-07T09:15:51;2.30;;;1.80;;
64520;SDS011;50896;46.714;17.322;2023-05-07T09:18:19;1.38;;;1.20;;
64520;SDS011;50896;46.714;17.322;2023-05-07T09:20:47;1.60;;;1.33;;
64520;SDS011;50896;46.714;17.322;2023-05-07T09:23:17;1.92;;;1.30;;
64520;SDS011;50896;46.714;17.322;2023-05-07T09:25:44;3.60;;;0.95;;
64520;SDS011;50896;46.714;17.322;2023-05-07T09:28:20;3.10;;;2.03;;
64520;SDS011;50896;46.714;17.322;2023-05-07T09:30:47;1.95;;;1.58;;
64520;SDS011;50896;46.714;17.322;2023-05-07T09:33:14;3.28;;;1.90;;
64520;SDS011;50896;46.714;17.322;2023-05-07T09:35:45;2.22;;;2.03;;
64520;SDS011;50896;46.714;17.322;2023-05-07T09:38:16;3.13;;;2.10;;
64520;SDS011;50896;46.714;17.322;2023-05-07T09:40:52;3.17;;;1.77;;
64520;SDS011;50896;46.714;17.322;2023-05-07T09:43:54;5.43;;;2.08;;
64520;SDS011;50896;46.714;17.322;2023-05-07T09:46:30;2.67;;;1.90;;
64520;SDS011;50896;46.714;17.322;2023-05-07T09:49:06;1.90;;;1.67;;
64520;SDS011;50896;46.714;17.322;2023-05-07T09:51:45;2.45;;;1.70;;
64520;SDS011;50896;46.714;17.322;2023-05-07T09:54:17;1.73;;;1.63;;
64520;SDS011;50896;46.714;17.322;2023-05-07T09:56:48;5.30;;;1.70;;
64520;SDS011;50896;46.714;17.322;2023-05-07T09:59:17;1.95;;;1.52;;
64520;SDS011;50896;46.714;17.322;2023-05-07T10:01:47;2.30;;;2.00;;
64520;SDS011;50896;46.714;17.322;2023-05-07T10:04:15;1.95;;;1.50;;
64520;SDS011;50896;46.714;17.322;2023-05-07T10:06:44;1.87;;;1.67;;
64520;SDS011;50896;46.714;17.322;2023-05-07T10:09:11;1.70;;;1.20;;
64520;SDS011;50896;46.714;17.322;2023-05-07T10:11:39;2.47;;;1.40;;
64520;SDS011;50896;46.714;17.322;2023-05-07T10:14:07;2.38;;;1.33;;
64520;SDS011;50896;46.714;17.322;2023-05-07T10:16:35;1.38;;;1.20;;
64520;SDS011;50896;46.714;17.322;2023-05-07T10:19:08;1.50;;;1.40;;
64520;SDS011;50896;46.714;17.322;2023-05-07T10:21:44;2.08;;;1.38;;
64520;SDS011;50896;46.714;17.322;2023-05-07T10:24:31;2.00;;;1.50;;
64520;SDS011;50896;46.714;17.322;2023-05-07T10:27:03;3.63;;;1.75;;
64520;SDS011;50896;46.714;17.322;2023-05-07T10:35:17;1.63;;;1.52;;
64520;SDS011;50896;46.714;17.322;2023-05-07T10:37:48;2.85;;;1.88;;
64520;SDS011;50896;46.714;17.322;2023-05-07T10:40:17;2.27;;;1.70;;
64520;SDS011;50896;46.714;17.322;2023-05-07T10:42:56;2.92;;;1.52;;
64520;SDS011;50896;46.714;17.322;2023-05-07T10:45:31;1.83;;;1.60;;
64520;SDS011;50896;46.714;17.322;2023-05-07T10:48:08;2.72;;;2.00;;
64520;SDS011;50896;46.714;17.322;2023-05-07T10:51:19;4.53;;;2.00;;
64520;SDS011;50896;46.714;17.322;2023-05-07T10:56:44;2.22;;;2.03;;
64520;SDS011;50896;46.714;17.322;2023-05-07T11:01:58;2.38;;;2.10;;
64520;SDS011;50896;46.714;17.322;2023-05-07T11:04:32;3.83;;;2.00;;
64520;SDS011;50896;46.714;17.322;2023-05-07T11:07:28;2.88;;;2.28;;
64520;SDS011;50896;46.714;17.322;2023-05-07T11:10:01;4.17;;;2.10;;
64520;SDS011;50896;46.714;17.322;2023-05-07T11:15:13;3.40;;;2.17;;
64520;SDS011;50896;46.714;17.322;2023-05-07T11:17:54;1.80;;;1.70;;
64520;SDS011;50896;46.714;17.322;2023-05-07T11:20:45;6.07;;;2.28;;
64520;SDS011;50896;46.714;17.322;2023-05-07T11:26:17;3.40;;;1.70;;
64520;SDS011;50896;46.714;17.322;2023-05-07T11:28:44;2.70;;;1.77;;
64520;SDS011;50896;46.714;17.322;2023-05-07T11:31:11;2.08;;;1.88;;
64520;SDS011;50896;46.714;17.322;2023-05-07T11:33:39;4.90;;;2.05;;
64520;SDS011;50896;46.714;17.322;2023-05-07T11:36:11;1.75;;;1.63;;
64520;SDS011;50896;46.714;17.322;2023-05-07T11:38:43;6.05;;;1.90;;
64520;SDS011;50896;46.714;17.322;2023-05-07T11:41:10;5.82;;;1.75;;
64520;SDS011;50896;46.714;17.322;2023-05-07T11:43:37;2.97;;;2.05;;
64520;SDS011;50896;46.714;17.322;2023-05-07T11:46:07;2.20;;;2.00;;
64520;SDS011;50896;46.714;17.322;2023-05-07T11:48:36;5.00;;;2.30;;
64520;SDS011;50896;46.714;17.322;2023-05-07T11:51:07;2.17;;;1.60;;
64520;SDS011;50896;46.714;17.322;2023-05-07T11:53:39;4.00;;;1.80;;
64520;SDS011;50896;46.714;17.322;2023-05-07T11:56:07;3.10;;;1.87;;
64520;SDS011;50896;46.714;17.322;2023-05-07T11:58:35;2.80;;;1.70;;
64520;SDS011;50896;46.714;17.322;2023-05-07T12:01:03;3.38;;;1.65;;
64520;SDS011;50896;46.714;17.322;2023-05-07T12:03:30;4.53;;;1.70;;
64520;SDS011;50896;46.714;17.322;2023-05-07T12:06:01;4.05;;;1.70;;
64520;SDS011;50896;46.714;17.322;2023-05-07T12:08:29;3.58;;;1.83;;
64520;SDS011;50896;46.714;17.322;2023-05-07T12:10:55;2.20;;;1.95;;
64520;SDS011;50896;46.714;17.322;2023-05-07T12:13:23;2.72;;;1.90;;
64520;SDS011;50896;46.714;17.322;2023-05-07T12:15:55;2.42;;;1.58;;
64520;SDS011;50896;46.714;17.322;2023-05-07T12:18:23;2.25;;;1.70;;
64520;SDS011;50896;46.714;17.322;2023-05-07T12:20:51;5.35;;;1.70;;
64520;SDS011;50896;46.714;17.322;2023-05-07T12:23:18;2.75;;;1.60;;
64520;SDS011;50896;46.714;17.322;2023-05-07T12:25:45;2.28;;;1.63;;
64520;SDS011;50896;46.714;17.322;2023-05-07T12:28:15;3.50;;;1.73;;
64520;SDS011;50896;46.714;17.322;2023-05-07T12:30:44;1.57;;;1.37;;
64520;SDS011;50896;46.714;17.322;2023-05-07T12:35:43;1.88;;;1.60;;
64520;SDS011;50896;46.714;17.322;2023-05-07T12:38:14;1.85;;;1.60;;
64520;SDS011;50896;46.714;17.322;2023-05-07T12:40:44;1.77;;;1.50;;
64520;SDS011;50896;46.714;17.322;2023-05-07T12:43:17;1.55;;;1.45;;
64520;SDS011;50896;46.714;17.322;2023-05-07T12:45:46;1.67;;;1.58;;
64520;SDS011;50896;46.714;17.322;2023-05-07T12:48:14;4.05;;;1.80;;
64520;SDS011;50896;46.714;17.322;2023-05-07T12:50:41;1.67;;;1.38;;
64520;SDS011;50896;46.714;17.322;2023-05-07T12:53:09;2.75;;;1.67;;
64520;SDS011;50896;46.714;17.322;2023-05-07T12:55:47;2.13;;;1.50;;
64520;SDS011;50896;46.714;17.322;2023-05-07T12:58:30;2.30;;;1.30;;
64520;SDS011;50896;46.714;17.322;2023-05-07T13:01:00;1.77;;;1.67;;
64520;SDS011;50896;46.714;17.322;2023-05-07T13:03:30;2.75;;;1.50;;
64520;SDS011;50896;46.714;17.322;2023-05-07T13:06:06;1.55;;;1.45;;
64520;SDS011;50896;46.714;17.322;2023-05-07T13:08:37;1.55;;;1.30;;
64520;SDS011;50896;46.714;17.322;2023-05-07T13:11:14;1.90;;;1.70;;
64520;SDS011;50896;46.714;17.322;2023-05-07T13:13:41;4.82;;;1.50;;
64520;SDS011;50896;46.714;17.322;2023-05-07T13:16:09;3.00;;;1.60;;
64520;SDS011;50896;46.714;17.322;2023-05-07T13:18:38;2.30;;;1.70;;
64520;SDS011;50896;46.714;17.322;2023-05-07T13:21:06;1.65;;;1.50;;
64520;SDS011;50896;46.714;17.322;2023-05-07T13:23:33;2.80;;;1.60;;
64520;SDS011;50896;46.714;17.322;2023-05-07T13:26:00;2.42;;;1.58;;
64520;SDS011;50896;46.714;17.322;2023-05-07T13:28:40;1.55;;;1.33;;
64520;SDS011;50896;46.714;17.322;2023-05-07T13:31:07;2.83;;;1.45;;
64520;SDS011;50896;46.714;17.322;2023-05-07T13:33:33;3.17;;;1.67;;
64520;SDS011;50896;46.714;17.322;2023-05-07T13:36:01;1.70;;;1.60;;
64520;SDS011;50896;46.714;17.322;2023-05-07T13:38:30;2.40;;;1.50;;
64520;SDS011;50896;46.714;17.322;2023-05-07T13:40:57;1.58;;;1.42;;
64520;SDS011;50896;46.714;17.322;2023-05-07T13:43:24;2.92;;;1.70;;
64520;SDS011;50896;46.714;17.322;2023-05-07T13:45:51;2.70;;;1.70;;
64520;SDS011;50896;46.714;17.322;2023-05-07T13:48:18;1.63;;;1.42;;
64520;SDS011;50896;46.714;17.322;2023-05-07T13:50:45;2.70;;;1.63;;
64520;SDS011;50896;46.714;17.322;2023-05-07T13:53:12;2.15;;;1.60;;
64520;SDS011;50896;46.714;17.322;2023-05-07T13:55:38;2.38;;;1.45;;
64520;SDS011;50896;46.714;17.322;2023-05-07T13:58:05;2.28;;;1.92;;
64520;SDS011;50896;46.714;17.322;2023-05-07T14:00:33;1.90;;;1.70;;
64520;SDS011;50896;46.714;17.322;2023-05-07T14:02:59;2.40;;;1.85;;
64520;SDS011;50896;46.714;17.322;2023-05-07T14:05:26;1.40;;;1.27;;
64520;SDS011;50896;46.714;17.322;2023-05-07T14:07:54;2.40;;;1.50;;
64520;SDS011;50896;46.714;17.322;2023-05-07T14:10:23;2.78;;;1.95;;
64520;SDS011;50896;46.714;17.322;2023-05-07T14:12:50;2.42;;;1.58;;
64520;SDS011;50896;46.714;17.322;2023-05-07T14:15:19;2.08;;;1.85;;
64520;SDS011;50896;46.714;17.322;2023-05-07T14:17:46;3.80;;;1.70;;
64520;SDS011;50896;46.714;17.322;2023-05-07T14:20:13;3.38;;;2.10;;
64520;SDS011;50896;46.714;17.322;2023-05-07T14:22:40;3.10;;;1.70;;
64520;SDS011;50896;46.714;17.322;2023-05-07T14:25:07;2.45;;;1.80;;
64520;SDS011;50896;46.714;17.322;2023-05-07T14:27:36;1.95;;;1.63;;
64520;SDS011;50896;46.714;17.322;2023-05-07T14:30:03;1.75;;;1.60;;
64520;SDS011;50896;46.714;17.322;2023-05-07T14:32:30;2.63;;;1.70;;
64520;SDS011;50896;46.714;17.322;2023-05-07T14:34:57;2.15;;;1.60;;
64520;SDS011;50896;46.714;17.322;2023-05-07T14:37:23;3.05;;;1.65;;
64520;SDS011;50896;46.714;17.322;2023-05-07T14:39:50;2.00;;;1.67;;
64520;SDS011;50896;46.714;17.322;2023-05-07T14:42:17;1.85;;;1.52;;
64520;SDS011;50896;46.714;17.322;2023-05-07T14:44:46;3.15;;;1.70;;
64520;SDS011;50896;46.714;17.322;2023-05-07T14:47:14;2.30;;;1.50;;
64520;SDS011;50896;46.714;17.322;2023-05-07T14:49:45;1.63;;;1.52;;
64520;SDS011;50896;46.714;17.322;2023-05-07T14:52:11;1.92;;;1.60;;
64520;SDS011;50896;46.714;17.322;2023-05-07T14:54:38;1.92;;;1.38;;
64520;SDS011;50896;46.714;17.322;2023-05-07T14:57:06;1.48;;;1.30;;
64520;SDS011;50896;46.714;17.322;2023-05-07T14:59:37;1.77;;;1.25;;
64520;SDS011;50896;46.714;17.322;2023-05-07T15:02:05;2.58;;;1.45;;